Airfield :
LOGIN :

Register | Disclaimer

   EN    FR    IT 

 










Legend :    VFR   Marginal VFR   IFR   Intensive IFR   Very Intensive IFR
Visi :
Ceiling :
>= 8 km
>= 3000ft
5 to 8 km
1000 to 3000 ft
1500m to 5 km
500 to 1000 ft
800 to 1500m
200 to 500 ft
< 800m
< 200 ft
Symbols :   Thunderstorms  Fog  Heavy snow  Heavy precipitations  Wind > 20 kt
SIGMETs :     Misc.  Thunderstorms  Icing  Turbulence  Mountain Waves  Volcanic Ashes






- Airport Elevation : 83 ft
- IATA code : LHR


EGLL - London Heathrow

CURRENT METAR :
  • 120450Z AUTO 18006KT 160V260 9999 NCD 01/01 Q1000 NOSIG

EXPIRED METARs :
  • 120420Z AUTO 17005KT 9999 NCD 01/01 Q1001 NOSIG
  • 120350Z AUTO 17005KT 9999 NCD 01/01 Q1001 NOSIG
  • 120320Z AUTO 22006KT 9999 NCD 01/01 Q1002
  • 120250Z AUTO 21004KT 9999 NCD 01/01 Q1002 NOSIG
  • 120220Z AUTO 22003KT 9999 NCD 01/01 Q1003 NOSIG

TAF TAF EGLL
Valid from the 12 at 00:00 until the 13 at 06:00 UTC


112258Z 1200/1306 24008KT 9999 FEW030
TEMPO 1201/1209 7000
PROB30
TEMPO 1202/1208 3000 BR MIFG BKN003
BECMG 1209/1212 16012KT 7000 -RA BKN010
PROB40
TEMPO 1211/1219 17015G25KT 3000 RA BKN005
BECMG 1217/1220 22010KT 9999 NSW SCT025
PROB40
TEMPO 1220/1302 4000 SHRA BKN014
BECMG 1221/1224 28012KT
PROB30
TEMPO 1223/1306 27015G25KT



MET'MAP, your aeronautical weather chart ! - Copyright ORBIFLY December 2007 - Disclaimer

ORBIFLY MET'MAP TEAM :

Programming & Development : Alexandra Zaïnal
Concept & original design : Baudouin d'Aumeries
Assistance for programming : Marc-Olivier Méhu
Technical & hardware support : Manuel Goepfert

Contact : metmap@orbifly.com




SOURCES & CREDITS :

   NOAA